Geeveston, Tasmania

1:45 AM AEDT on January 29, 2015 (GMT +1100)
Geeveston petenjohn | Change Station
CLOSE
Current Station
Personal Weather Station
Location: Geeveston, TASMANIA
Elevation: 167 ft
Nearby Weather Stations

Elev 167 ft 43.16 °S, 146.92 °E | Updated 2 minutes ago

Mostly Cloudy
Mostly Cloudy
53.4 °F
Feels Like 53.4 °F
N
0.0
Wind Variable Wind from SE
Gusts 1.3 mph

Today
High -- | Low -- °F
--% Chance of Precip.
Yesterday
High -- | Low -- °F
Precip. -- in
6:08 AM 8:41 PM
Waxing Gibbous, 65% visible
Pressure 30.27 in
Visibility 6.2 miles
Clouds Few 3000 ft
Mostly Cloudy 6000 ft
Dew Point 46 °F
Humidity 76%
Rainfall 0.00 in
Snow Depth Not available.
UV 0 out of 12
Pollen Not available.
Air Quality Not available.
Flu Activity Not available.
METAR YMHB 281430Z 21007KT 9999 FEW030 BKN060 12/08 Q1025

More Conditions Fewer Conditions

Pressure 30.27 in
Visibility 6.2 miles
Clouds Few 3000 ft
Mostly Cloudy 6000 ft
Dew Point 46 °F
Humidity 76%
Rainfall 0.00 in
Snow Depth Not available.
UV 0 out of 12
Pollen Not available.
Air Quality Not available.
Flu Activity Not available.
METAR YMHB 281430Z 21007KT 9999 FEW030 BKN060 12/08 Q1025

More Conditions Fewer Conditions

10-Day Weather Forecast

Almanac

Astronomy

Jan. 29, 2015 Rise Set
Actual Time
Civil Twilight
Nautical Twilight
Astronomical Twilight
Moon
Length of Visible Light
Length of Day
Tomorrow will be .
, % of the Moon is Illuminated

Today's Extremes

Country Highs Country Lows

Community

WunderPhotos

Upload Photos

1,791,160 photos uploaded!

WunderBlogs® & News

Nearby

Air Quality

  Air Quality AQ Index Pollutant
Not available.

Snow Depth

Station Depth Elevation

Earthquake Activity

City Distance Mag. Time & Date
Minimum magnitude displayed is 2.5.

Coastal Water Temperatures

Place Temperature

Nearby Weather Stations